Earendil — FAE4542 — position and weather

sailwx.info

Track history (hours):
 
Tides and Currents Weather Stations Pressure Air Temp Water Temp Dewpoint Dewpoint Depression Visibility Wind Speed Wind Dir Waves Ship Positions

Earendil

Last reported at 2017-Nov-02 07:42 UTC. Time now 2017-Nov-19 01:31 UTC.
Position N 49°23' W 002°27'.
Warning: this ship's position is 16 days out of date.

Length 13 m.

Type: Sailing vessel. MMSI: 227477470.

Date/timePositionNaut miles runAvg speedWind from/ knotsBaromVisibWave heightAir tempDewpointWater temp
2017-Nov-02 07:42N 49°23' W 002°27'1 5.3
2017-Nov-02 07:27N 49°24' W 002°28'3 5.4
2017-Nov-02 06:59N 49°26' W 002°30'2 3.7
2017-Nov-02 06:30N 49°27' W 002°32'0 0.0
2017-Oct-31 14:27N 49°27' W 002°31'3 6.1
2017-Oct-31 13:55N 49°24' W 002°31'31 5.6
2017-Oct-31 08:21N 48°58' W 002°56'4 5.4
2017-Oct-31 07:38N 48°54' W 002°58'1 5.7
2017-Oct-31 07:27N 48°53' W 002°59'3 6.4
2017-Oct-31 07:00N 48°51' W 003°02'14 0.3
2017-Oct-29 13:21N 48°44' W 002°45'4 8.0
2017-Oct-29 12:49N 48°47' W 002°40'  
2017-Oct-26 16:07N 48°52' W 001°49'1 4.6
2017-Oct-26 16:00N 48°52' W 001°50'3 5.6
2017-Oct-26 15:29N 48°51' W 001°54'2 5.1
2017-Oct-26 15:00N 48°50' W 001°57'2 5.0
2017-Oct-26 14:30N 48°49' W 002°01'3 4.9
2017-Oct-26 13:59N 48°48' W 002°05'2 5.0
2017-Oct-26 13:30N 48°48' W 002°08'2 4.9
2017-Oct-26 13:00N 48°47' W 002°12'3 5.1
2017-Oct-26 12:30N 48°46' W 002°15'3 5.4
2017-Oct-26 12:00N 48°45' W 002°19'3 5.5
2017-Oct-26 11:29N 48°44' W 002°23'3 5.2
2017-Oct-26 10:56N 48°43' W 002°27'3 5.5
2017-Oct-26 10:25N 48°42' W 002°31'2 5.7
2017-Oct-26 10:00N 48°41' W 002°35'3 5.7
2017-Oct-26 09:29N 48°40' W 002°39'3 5.7
2017-Oct-26 09:00N 48°38' W 002°42'3 5.6
2017-Oct-26 08:30N 48°37' W 002°46'2 4.9
2017-Oct-26 08:00N 48°39' W 002°49'  
Track history (hours):
 
Tides and Currents Weather Stations Pressure Air Temp Water Temp Dewpoint Dewpoint Depression Visibility Wind Speed Wind Dir Waves Ship Positions

Earendil

Last reported at 2017-Nov-02 07:42 UTC. Time now 2017-Nov-19 01:31 UTC.
Position N 49°23' W 002°27'.
Warning: this ship's position is 16 days out of date.

Length 13 m.

Type: Sailing vessel. MMSI: 227477470.

Date/timePositionNaut miles runAvg speedWind from/ knotsBaromVisibWave heightAir tempDewpointWater temp
2017-Nov-02 07:42N 49°23' W 002°27'1 5.3
2017-Nov-02 07:27N 49°24' W 002°28'3 5.4
2017-Nov-02 06:59N 49°26' W 002°30'2 3.7
2017-Nov-02 06:30N 49°27' W 002°32'0 0.0
2017-Oct-31 14:27N 49°27' W 002°31'3 6.1
2017-Oct-31 13:55N 49°24' W 002°31'31 5.6
2017-Oct-31 08:21N 48°58' W 002°56'4 5.4
2017-Oct-31 07:38N 48°54' W 002°58'1 5.7
2017-Oct-31 07:27N 48°53' W 002°59'3 6.4
2017-Oct-31 07:00N 48°51' W 003°02'14 0.3
2017-Oct-29 13:21N 48°44' W 002°45'4 8.0
2017-Oct-29 12:49N 48°47' W 002°40'  
2017-Oct-26 16:07N 48°52' W 001°49'1 4.6
2017-Oct-26 16:00N 48°52' W 001°50'3 5.6
2017-Oct-26 15:29N 48°51' W 001°54'2 5.1
2017-Oct-26 15:00N 48°50' W 001°57'2 5.0
2017-Oct-26 14:30N 48°49' W 002°01'3 4.9
2017-Oct-26 13:59N 48°48' W 002°05'2 5.0
2017-Oct-26 13:30N 48°48' W 002°08'2 4.9
2017-Oct-26 13:00N 48°47' W 002°12'3 5.1
2017-Oct-26 12:30N 48°46' W 002°15'3 5.4
2017-Oct-26 12:00N 48°45' W 002°19'3 5.5
2017-Oct-26 11:29N 48°44' W 002°23'3 5.2
2017-Oct-26 10:56N 48°43' W 002°27'3 5.5
2017-Oct-26 10:25N 48°42' W 002°31'2 5.7
2017-Oct-26 10:00N 48°41' W 002°35'3 5.7
2017-Oct-26 09:29N 48°40' W 002°39'3 5.7
2017-Oct-26 09:00N 48°38' W 002°42'3 5.6
2017-Oct-26 08:30N 48°37' W 002°46'2 4.9
2017-Oct-26 08:00N 48°39' W 002°49'  

Dump ship's entire track history